createdAt,value
2018-11-07T00:00:16.691Z,98.33
2018-11-07T00:02:45.673Z,104.70
2018-11-07T00:05:15.859Z,99.93
2018-11-07T00:07:45.201Z,94.57
2018-11-07T00:10:14.164Z,100.40
2018-11-07T00:12:43.020Z,106.70
2018-11-07T00:15:13.474Z,106.57
2018-11-07T00:17:42.472Z,106.57
2018-11-07T00:20:12.080Z,92.07
2018-11-07T00:22:40.923Z,111.30
2018-11-07T00:25:11.096Z,105.23
2018-11-07T00:27:40.375Z,96.07
2018-11-07T00:30:10.291Z,106.63
2018-11-07T00:32:39.758Z,105.63
2018-11-07T00:35:09.791Z,91.67
2018-11-07T00:37:39.147Z,94.03
2018-11-07T00:40:08.048Z,99.83
2018-11-07T00:42:36.907Z,97.40
2018-11-07T00:45:08.707Z,99.27
2018-11-07T00:47:37.600Z,111.43
2018-11-07T00:50:13.196Z,106.23
2018-11-07T00:52:42.615Z,117.87
2018-11-07T00:55:12.203Z,118.47
2018-11-07T00:57:41.220Z,106.43
2018-11-07T01:00:21.585Z,115.10
2018-11-07T01:02:53.304Z,103.63
2018-11-07T01:05:22.302Z,117.57
2018-11-07T01:07:51.158Z,128.77
2018-11-07T01:10:20.040Z,125.37
2018-11-07T01:12:48.926Z,124.37
2018-11-07T01:15:17.886Z,109.20
2018-11-07T01:17:46.743Z,114.73
2018-11-07T01:20:15.598Z,102.47
2018-11-07T01:22:45.338Z,112.33
2018-11-07T01:25:14.259Z,105.20
2018-11-07T01:27:43.146Z,99.83
2018-11-07T01:30:13.368Z,88.53
2018-11-07T01:32:42.319Z,102.60
2018-11-07T01:35:11.259Z,84.13
2018-11-07T01:37:40.139Z,97.20
2018-11-07T01:40:11.792Z,82.07
2018-11-07T01:42:40.884Z,90.77
2018-11-07T01:45:10.827Z,77.33
2018-11-07T01:47:39.767Z,94.43
2018-11-07T01:50:11.157Z,91.43
2018-11-07T01:52:40.368Z,84.17
2018-11-07T01:55:09.879Z,90.80
2018-11-07T01:57:38.782Z,90.63
2018-11-07T02:00:12.498Z,95.47
2018-11-07T02:02:42.971Z,92.87
2018-11-07T02:05:12.652Z,83.73
2018-11-07T02:07:42.000Z,83.63
2018-11-07T02:10:10.987Z,80.33
2018-11-07T02:12:40.703Z,85.10
2018-11-07T02:15:10.094Z,91.73
2018-11-07T02:17:39.204Z,95.17
2018-11-07T02:20:09.815Z,97.70
2018-11-07T02:22:38.740Z,109.80
2018-11-07T02:25:07.786Z,104.17
2018-11-07T02:27:36.827Z,94.77
2018-11-07T02:30:08.783Z,107.67
2018-11-07T02:32:37.684Z,92.83
2018-11-07T02:35:06.735Z,94.33
2018-11-07T02:37:35.583Z,113.83
2018-11-07T02:40:04.967Z,96.73
2018-11-07T02:42:33.799Z,102.47
2018-11-07T02:45:04.185Z,110.17
2018-11-07T02:47:33.099Z,106.47
2018-11-07T02:50:01.995Z,98.50
2018-11-07T02:52:30.860Z,109.40
2018-11-07T02:54:59.803Z,98.83
2018-11-07T02:57:28.682Z,105.23
2018-11-07T02:59:57.595Z,108.00
2018-11-07T03:02:26.475Z,99.67
2018-11-07T03:04:55.430Z,106.40
2018-11-07T03:07:24.311Z,91.70
2018-11-07T03:09:53.244Z,106.23
2018-11-07T03:12:22.123Z,108.77
2018-11-07T03:14:51.027Z,100.27
2018-11-07T03:17:19.879Z,98.00
2018-11-07T03:19:48.808Z,98.87
2018-11-07T03:22:17.679Z,95.67
2018-11-07T03:24:46.608Z,98.40
2018-11-07T03:27:15.492Z,109.37
2018-11-07T03:29:44.364Z,102.30
2018-11-07T03:32:13.220Z,114.70
2018-11-07T03:34:42.181Z,110.77
2018-11-07T03:37:11.092Z,100.63
2018-11-07T03:39:40.033Z,108.17
2018-11-07T03:42:08.823Z,98.17
2018-11-07T03:44:37.735Z,101.77
2018-11-07T03:47:06.776Z,106.47
2018-11-07T03:49:35.828Z,100.67
2018-11-07T03:52:04.692Z,97.70
2018-11-07T03:54:33.596Z,104.77
2018-11-07T03:57:02.448Z,126.40
2018-11-07T03:59:31.315Z,98.07
2018-11-07T04:02:01.064Z,109.13
2018-11-07T04:04:29.967Z,105.90
2018-11-07T04:06:59.552Z,101.67
2018-11-07T04:09:28.424Z,96.63
2018-11-07T04:11:57.330Z,106.23
2018-11-07T04:14:28.301Z,94.03
2018-11-07T04:16:57.175Z,101.23
2018-11-07T04:19:26.059Z,115.70
2018-11-07T04:21:54.951Z,97.70
2018-11-07T04:24:23.874Z,103.03
2018-11-07T04:26:52.735Z,111.80
2018-11-07T04:29:21.604Z,103.47
2018-11-07T04:31:50.461Z,104.17
2018-11-07T04:34:19.324Z,108.80
2018-11-07T04:36:48.184Z,108.57
2018-11-07T04:39:17.063Z,103.17
2018-11-07T04:41:45.927Z,107.57
2018-11-07T04:44:14.799Z,126.03
2018-11-07T04:46:43.652Z,106.80
2018-11-07T04:49:12.518Z,102.63
2018-11-07T04:51:41.444Z,118.10
2018-11-07T04:54:10.704Z,110.67
2018-11-07T04:56:39.653Z,109.37
2018-11-07T04:59:11.226Z,132.50
2018-11-07T05:01:41.840Z,96.30
2018-11-07T05:04:10.695Z,117.30
2018-11-07T05:06:39.618Z,107.47
2018-11-07T05:09:09.131Z,104.13
2018-11-07T05:11:38.388Z,105.50
2018-11-07T05:14:07.303Z,113.10
2018-11-07T05:16:36.270Z,114.23
2018-11-07T05:19:05.258Z,102.50
2018-11-07T05:21:34.514Z,109.13
2018-11-07T05:24:03.451Z,95.47
2018-11-07T05:26:33.129Z,91.20
2018-11-07T05:29:02.124Z,92.63
2018-11-07T05:31:30.978Z,96.00
2018-11-07T05:33:59.876Z,98.90
2018-11-07T05:36:28.784Z,94.40
2018-11-07T05:38:57.707Z,81.80
2018-11-07T05:41:26.530Z,83.87
2018-11-07T05:43:55.355Z,96.03
2018-11-07T05:46:24.280Z,84.37
2018-11-07T05:48:53.178Z,76.90
2018-11-07T05:51:21.995Z,83.60
2018-11-07T05:53:50.803Z,70.57
2018-11-07T05:56:19.667Z,70.10
2018-11-07T05:58:48.503Z,74.30
2018-11-07T06:01:17.394Z,78.03
2018-11-07T06:03:46.207Z,74.80
2018-11-07T06:06:15.127Z,77.17
2018-11-07T06:08:43.949Z,70.33
2018-11-07T06:11:12.809Z,83.80
2018-11-07T06:13:41.631Z,75.53
2018-11-07T06:16:10.777Z,85.03
2018-11-07T06:18:39.615Z,89.53
2018-11-07T06:21:08.426Z,86.47
2018-11-07T06:23:37.269Z,90.93
2018-11-07T06:26:06.139Z,80.10
2018-11-07T06:28:34.973Z,79.07
2018-11-07T06:31:04.157Z,84.80
2018-11-07T06:33:32.978Z,86.70
2018-11-07T06:36:01.927Z,96.57
2018-11-07T06:38:30.787Z,106.40
2018-11-07T06:40:59.594Z,98.53
2018-11-07T06:43:28.418Z,108.00
2018-11-07T06:45:57.272Z,120.27
2018-11-07T06:48:26.175Z,98.70
2018-11-07T06:50:55.003Z,113.07
2018-11-07T06:53:23.831Z,107.80
2018-11-07T06:55:52.773Z,115.93
2018-11-07T06:58:21.590Z,96.77
2018-11-07T07:00:50.399Z,103.77
2018-11-07T07:03:19.190Z,98.47
2018-11-07T07:05:48.075Z,95.17
2018-11-07T07:08:16.899Z,96.60
2018-11-07T07:10:45.711Z,101.20
2018-11-07T07:13:14.547Z,99.83
2018-11-07T07:15:43.419Z,95.70
2018-11-07T07:18:12.312Z,83.77
2018-11-07T07:20:41.075Z,84.37
2018-11-07T07:23:09.911Z,82.83
2018-11-07T07:25:38.970Z,92.20
2018-11-07T07:28:07.759Z,109.43
2018-11-07T07:30:36.631Z,104.10
2018-11-07T07:33:06.550Z,96.77
2018-11-07T07:35:35.379Z,99.20
2018-11-07T07:38:04.624Z,94.70
2018-11-07T07:40:33.491Z,95.80
2018-11-07T07:43:02.308Z,99.73
2018-11-07T07:45:31.245Z,98.47
2018-11-07T07:48:00.031Z,81.47
2018-11-07T07:50:28.855Z,89.90
2018-11-07T07:52:57.735Z,89.47
2018-11-07T07:55:26.632Z,92.77
2018-11-07T07:57:55.463Z,96.87
2018-11-07T08:00:30.830Z,71.40
2018-11-07T08:02:59.662Z,86.80
2018-11-07T08:05:28.551Z,84.37
2018-11-07T08:07:57.355Z,75.27
2018-11-07T08:10:26.155Z,80.60
2018-11-07T08:12:54.985Z,74.97
2018-11-07T08:15:23.870Z,69.43
2018-11-07T08:17:52.719Z,62.53
2018-11-07T08:20:21.537Z,67.70
2018-11-07T08:22:50.371Z,70.33
2018-11-07T08:25:19.251Z,50.63
2018-11-07T08:27:48.094Z,54.17
2018-11-07T08:30:18.387Z,50.70
2018-11-07T08:32:47.239Z,51.70
2018-11-07T08:35:16.384Z,40.90
2018-11-07T08:37:45.979Z,37.63
2018-11-07T08:40:19.927Z,45.10
2018-11-07T08:42:49.089Z,42.67
2018-11-07T08:45:18.006Z,41.67
2018-11-07T08:47:47.488Z,39.10
2018-11-07T08:50:17.612Z,37.37
2018-11-07T08:52:47.011Z,41.03
2018-11-07T08:55:17.332Z,38.53
2018-11-07T08:57:46.157Z,34.07
2018-11-07T09:00:18.019Z,35.60
2018-11-07T09:02:48.766Z,39.67
2018-11-07T09:05:18.679Z,35.20
2018-11-07T09:07:47.923Z,34.40
2018-11-07T09:10:17.976Z,40.33
2018-11-07T09:12:46.823Z,41.00
2018-11-07T09:15:16.948Z,37.17
2018-11-07T09:17:45.831Z,30.83
2018-11-07T09:20:16.680Z,32.30
2018-11-07T09:22:45.560Z,38.10
2018-11-07T09:25:15.179Z,34.43
2018-11-07T09:27:44.804Z,30.90
2018-11-07T09:30:22.880Z,31.83
2018-11-07T09:32:51.777Z,32.83
2018-11-07T09:35:21.071Z,31.57
2018-11-07T09:37:49.985Z,32.20
2018-11-07T09:40:19.883Z,30.00
2018-11-07T09:42:49.086Z,33.47
2018-11-07T09:45:19.222Z,31.87
2018-11-07T09:47:48.291Z,32.40
2018-11-07T09:50:17.696Z,36.77
2018-11-07T09:52:46.699Z,31.20
2018-11-07T09:55:16.936Z,31.63
2018-11-07T09:57:45.744Z,33.83
2018-11-07T10:00:19.841Z,33.10
2018-11-07T10:02:51.478Z,33.70
2018-11-07T10:05:20.810Z,31.27
2018-11-07T10:07:49.702Z,30.60
2018-11-07T10:10:19.807Z,29.27
2018-11-07T10:12:48.879Z,28.50
2018-11-07T10:15:18.080Z,33.83
2018-11-07T10:17:46.923Z,32.47
2018-11-07T10:20:18.986Z,35.20
2018-11-07T10:22:48.244Z,30.80
2018-11-07T10:25:17.228Z,32.70
2018-11-07T10:27:46.525Z,31.53
2018-11-07T10:30:16.557Z,31.80
2018-11-07T10:32:46.271Z,32.10
2018-11-07T10:35:15.223Z,31.67
2018-11-07T10:37:44.111Z,29.20
2018-11-07T10:40:23.986Z,37.20
2018-11-07T10:42:52.914Z,29.47
2018-11-07T10:45:21.872Z,30.30
2018-11-07T10:47:51.090Z,27.73
2018-11-07T10:50:20.695Z,26.47
2018-11-07T10:52:49.975Z,30.33
2018-11-07T10:55:18.951Z,27.27
2018-11-07T10:57:47.808Z,29.87
2018-11-07T11:00:26.646Z,28.37
2018-11-07T11:03:07.080Z,25.80
2018-11-07T11:05:37.687Z,28.07
2018-11-07T11:08:06.858Z,33.93
2018-11-07T11:10:35.959Z,28.97
2018-11-07T11:13:05.114Z,30.30
2018-11-07T11:15:34.019Z,29.07
2018-11-07T11:18:02.892Z,29.60
2018-11-07T11:20:31.735Z,29.83
2018-11-07T11:23:00.559Z,27.03
2018-11-07T11:25:30.420Z,30.07
2018-11-07T11:27:59.268Z,30.40
2018-11-07T11:30:28.087Z,32.17
2018-11-07T11:32:56.917Z,30.70
2018-11-07T11:35:25.789Z,26.97
2018-11-07T11:37:54.620Z,28.90
2018-11-07T11:40:23.435Z,33.27
2018-11-07T11:42:52.275Z,28.47
2018-11-07T11:45:21.150Z,29.47
2018-11-07T11:47:50.014Z,30.43
2018-11-07T11:50:19.895Z,29.40
2018-11-07T11:52:49.256Z,28.63
2018-11-07T11:55:18.147Z,29.07
2018-11-07T11:57:47.185Z,27.63
2018-11-07T12:00:19.553Z,28.40
2018-11-07T12:02:48.745Z,25.80
2018-11-07T12:05:18.329Z,27.37
2018-11-07T12:07:47.222Z,27.23
2018-11-07T12:10:21.358Z,25.97
2018-11-07T12:12:52.543Z,27.30
2018-11-07T12:15:23.085Z,27.37
2018-11-07T12:17:52.289Z,25.17
2018-11-07T12:20:21.147Z,27.30
2018-11-07T12:22:50.079Z,30.43
2018-11-07T12:25:20.834Z,30.30
2018-11-07T12:27:49.721Z,28.70
2018-11-07T12:30:20.852Z,26.47
2018-11-07T12:32:50.753Z,27.23
2018-11-07T12:35:20.171Z,34.67
2018-11-07T12:37:49.026Z,25.50
2018-11-07T12:40:18.351Z,27.67
2018-11-07T12:42:47.232Z,26.60
2018-11-07T12:45:16.748Z,27.43
2018-11-07T12:47:45.620Z,27.27
2018-11-07T12:50:16.430Z,28.17
2018-11-07T12:52:45.790Z,28.53
2018-11-07T12:55:14.983Z,33.50
2018-11-07T12:57:43.856Z,28.73
2018-11-07T13:00:25.130Z,29.37
2018-11-07T13:02:56.999Z,30.00
2018-11-07T13:05:26.419Z,29.17
2018-11-07T13:07:56.443Z,29.57
2018-11-07T13:10:25.302Z,30.53
2018-11-07T13:12:54.415Z,30.13
2018-11-07T13:15:23.324Z,34.80
2018-11-07T13:17:55.771Z,32.53
2018-11-07T13:20:25.388Z,36.07
2018-11-07T13:22:54.791Z,34.77
2018-11-07T13:25:24.519Z,35.50
2018-11-07T13:27:53.388Z,34.70
2018-11-07T13:30:22.711Z,34.40
2018-11-07T13:32:51.520Z,35.67
2018-11-07T13:35:20.742Z,38.30
2018-11-07T13:37:50.405Z,36.60
2018-11-07T13:40:20.452Z,36.90
2018-11-07T13:42:49.301Z,34.47
2018-11-07T13:45:20.399Z,37.40
2018-11-07T13:47:50.471Z,35.57
2018-11-07T13:50:19.755Z,36.33
2018-11-07T13:52:48.645Z,37.50
2018-11-07T13:55:17.564Z,35.27
2018-11-07T13:57:46.651Z,38.30
2018-11-07T14:00:20.391Z,35.27
2018-11-07T14:02:49.858Z,34.80
2018-11-07T14:05:18.807Z,32.47
2018-11-07T14:07:47.655Z,34.00
2018-11-07T14:10:23.923Z,36.00
2018-11-07T14:12:53.237Z,35.10
2018-11-07T14:15:22.262Z,36.20
2018-11-07T14:17:51.477Z,40.10
2018-11-07T14:20:20.367Z,35.70
2018-11-07T14:22:49.195Z,35.40
2018-11-07T14:25:18.151Z,34.10
2018-11-07T14:27:47.171Z,36.43
2018-11-07T14:30:17.481Z,39.70
2018-11-07T14:32:57.212Z,34.27
2018-11-07T14:35:26.192Z,35.07
2018-11-07T14:37:55.783Z,36.47
2018-11-07T14:40:24.635Z,36.13
2018-11-07T14:42:53.452Z,35.57
2018-11-07T14:45:22.387Z,35.40
2018-11-07T14:47:51.341Z,37.27
2018-11-07T14:50:20.088Z,37.03
2018-11-07T14:52:48.919Z,38.67
2018-11-07T14:55:17.803Z,41.23
2018-11-07T14:57:46.662Z,38.67
2018-11-07T15:00:17.683Z,37.77
2018-11-07T15:02:46.855Z,45.57
2018-11-07T15:05:17.317Z,39.13
2018-11-07T15:07:46.135Z,43.37
2018-11-07T15:10:15.793Z,40.87
2018-11-07T15:12:44.630Z,45.57
2018-11-07T15:15:14.710Z,43.13
2018-11-07T15:17:43.518Z,39.57
2018-11-07T15:20:13.399Z,40.93
2018-11-07T15:22:42.323Z,43.13
2018-11-07T15:25:12.536Z,38.53
2018-11-07T15:27:42.643Z,41.83
2018-11-07T15:30:12.679Z,42.33
2018-11-07T15:32:42.171Z,38.33
2018-11-07T15:35:11.632Z,40.43
2018-11-07T15:37:40.672Z,39.70
2018-11-07T15:40:12.119Z,40.10
2018-11-07T15:42:41.326Z,39.83
2018-11-07T15:45:12.943Z,38.70
2018-11-07T15:47:42.023Z,39.67
2018-11-07T15:50:16.551Z,39.43
2018-11-07T15:52:46.337Z,40.70
2018-11-07T15:55:15.239Z,39.80
2018-11-07T15:57:44.298Z,38.03
2018-11-07T16:00:15.638Z,38.30
2018-11-07T16:02:45.408Z,42.67
2018-11-07T16:05:15.047Z,39.90
2018-11-07T16:07:43.976Z,40.13
2018-11-07T16:10:14.086Z,38.57
2018-11-07T16:12:43.069Z,39.73
2018-11-07T16:15:14.866Z,39.93
2018-11-07T16:17:43.954Z,34.60
2018-11-07T16:20:14.235Z,37.90
2018-11-07T16:22:44.853Z,34.60
2018-11-07T16:25:13.823Z,36.67
2018-11-07T16:27:43.259Z,38.23
2018-11-07T16:30:13.821Z,36.43
2018-11-07T16:32:44.486Z,35.30
2018-11-07T16:35:14.247Z,37.27
2018-11-07T16:37:43.729Z,40.20
2018-11-07T16:40:15.103Z,37.07
2018-11-07T16:42:44.308Z,39.00
2018-11-07T16:45:14.131Z,37.47
2018-11-07T16:47:43.229Z,35.87
2018-11-07T16:50:13.231Z,47.33
2018-11-07T16:52:42.705Z,37.83
2018-11-07T16:55:11.567Z,37.30
2018-11-07T16:57:40.418Z,40.33
2018-11-07T17:00:16.621Z,35.57
2018-11-07T17:02:46.788Z,38.90
2018-11-07T17:05:18.372Z,42.13
2018-11-07T17:07:47.626Z,38.40
2018-11-07T17:10:16.718Z,43.70
2018-11-07T17:12:45.576Z,42.70
2018-11-07T17:15:14.490Z,43.37
2018-11-07T17:17:43.327Z,40.03
2018-11-07T17:20:13.743Z,41.87
2018-11-07T17:22:42.808Z,42.37
2018-11-07T17:25:14.722Z,41.00
2018-11-07T17:27:43.683Z,42.10
2018-11-07T17:30:13.587Z,42.83
2018-11-07T17:32:42.487Z,37.77
2018-11-07T17:35:12.815Z,44.03
2018-11-07T17:37:41.983Z,43.90
2018-11-07T17:40:14.047Z,48.60
2018-11-07T17:42:43.267Z,47.30
2018-11-07T17:45:14.743Z,51.27
2018-11-07T17:47:43.862Z,56.60
2018-11-07T17:50:14.043Z,46.97
2018-11-07T17:52:43.107Z,48.43
2018-11-07T17:55:13.235Z,45.70
2018-11-07T17:57:42.140Z,50.70
2018-11-07T18:00:23.525Z,48.77
2018-11-07T18:02:55.253Z,53.45
2018-11-07T18:05:24.174Z,49.43
2018-11-07T18:07:53.082Z,48.10
2018-11-07T18:10:21.933Z,46.20
2018-11-07T18:12:50.776Z,55.70
2018-11-07T18:15:19.715Z,52.57
2018-11-07T18:17:48.600Z,52.93
2018-11-07T18:20:17.867Z,52.40
2018-11-07T18:22:46.676Z,50.63
2018-11-07T18:25:16.427Z,52.30
2018-11-07T18:27:45.271Z,53.33
2018-11-07T18:30:15.352Z,51.80
2018-11-07T18:32:45.056Z,52.40
2018-11-07T18:35:15.710Z,52.10
2018-11-07T18:37:44.919Z,56.33
2018-11-07T18:40:15.228Z,54.60
2018-11-07T18:42:44.225Z,53.83
2018-11-07T18:45:13.907Z,53.07
2018-11-07T18:47:44.119Z,53.90
2018-11-07T18:50:14.547Z,50.33
2018-11-07T18:52:43.637Z,53.77
2018-11-07T18:55:13.769Z,53.63
2018-11-07T18:57:43.475Z,55.77
2018-11-07T19:00:18.002Z,48.00
2018-11-07T19:02:47.539Z,53.57
2018-11-07T19:05:16.536Z,54.73
2018-11-07T19:07:45.455Z,49.07
2018-11-07T19:10:16.416Z,49.00
2018-11-07T19:12:46.152Z,45.30
2018-11-07T19:15:15.525Z,50.53
2018-11-07T19:17:45.251Z,51.60
2018-11-07T19:20:14.855Z,48.67
2018-11-07T19:22:43.731Z,42.10
2018-11-07T19:25:13.971Z,46.27
2018-11-07T19:27:42.811Z,49.63
2018-11-07T19:30:14.131Z,49.60
2018-11-07T19:32:43.925Z,43.50
2018-11-07T19:35:13.734Z,44.63
2018-11-07T19:37:43.259Z,44.27
2018-11-07T19:40:13.492Z,43.93
2018-11-07T19:42:42.407Z,43.20
2018-11-07T19:45:13.108Z,48.13
2018-11-07T19:47:41.965Z,46.43
2018-11-07T19:50:12.315Z,42.73
2018-11-07T19:52:41.291Z,44.90
2018-11-07T19:55:13.576Z,49.63
2018-11-07T19:57:44.313Z,56.53
2018-11-07T20:00:16.871Z,51.07
2018-11-07T20:02:46.173Z,49.53
2018-11-07T20:05:15.254Z,47.40
2018-11-07T20:07:44.235Z,50.00
2018-11-07T20:10:16.082Z,49.10
2018-11-07T20:12:45.924Z,44.70
2018-11-07T20:15:16.468Z,45.40
2018-11-07T20:17:46.927Z,47.57
2018-11-07T20:20:16.518Z,44.10
2018-11-07T20:22:45.802Z,45.43
2018-11-07T20:25:15.211Z,48.70
2018-11-07T20:27:44.508Z,47.10
2018-11-07T20:30:14.679Z,48.50
2018-11-07T20:32:43.548Z,46.67
2018-11-07T20:35:14.227Z,46.47
2018-11-07T20:37:43.151Z,48.17
2018-11-07T20:40:13.679Z,53.00
2018-11-07T20:42:42.600Z,44.80
2018-11-07T20:45:12.298Z,47.40
2018-11-07T20:47:41.474Z,47.47
2018-11-07T20:50:13.159Z,45.43
2018-11-07T20:52:42.611Z,49.03
2018-11-07T20:55:12.688Z,49.00
2018-11-07T20:57:41.636Z,46.43
2018-11-07T21:00:27.707Z,57.93
2018-11-07T21:02:58.477Z,48.50
2018-11-07T21:05:27.776Z,52.17
2018-11-07T21:07:56.908Z,47.87
2018-11-07T21:10:25.794Z,49.10
2018-11-07T21:12:55.200Z,48.03
2018-11-07T21:15:24.413Z,45.77
2018-11-07T21:17:53.364Z,47.37
2018-11-07T21:20:22.205Z,46.13
2018-11-07T21:22:51.043Z,49.80
2018-11-07T21:25:19.887Z,42.70
2018-11-07T21:27:49.439Z,50.30
2018-11-07T21:30:18.287Z,54.03
2018-11-07T21:32:47.114Z,50.13
2018-11-07T21:35:16.172Z,44.60
2018-11-07T21:37:45.076Z,55.63
2018-11-07T21:40:15.615Z,52.50
2018-11-07T21:42:45.332Z,48.43
2018-11-07T21:45:15.550Z,57.83
2018-11-07T21:47:44.543Z,45.33
2018-11-07T21:50:15.460Z,54.93
2018-11-07T21:52:44.372Z,54.53
2018-11-07T21:55:13.228Z,54.10
2018-11-07T21:57:42.078Z,52.67
2018-11-07T22:00:19.036Z,50.30
2018-11-07T22:02:47.914Z,55.90
2018-11-07T22:05:17.310Z,54.27
2018-11-07T22:07:46.183Z,55.33
2018-11-07T22:10:16.319Z,54.47
2018-11-07T22:12:46.328Z,49.97
2018-11-07T22:15:15.213Z,49.27
2018-11-07T22:17:44.066Z,51.23
2018-11-07T22:20:17.856Z,44.27
2018-11-07T22:22:46.734Z,48.03
2018-11-07T22:25:15.763Z,42.47
2018-11-07T22:27:44.595Z,43.87
2018-11-07T22:30:14.838Z,47.20
2018-11-07T22:32:43.774Z,43.60
2018-11-07T22:35:14.067Z,44.40
2018-11-07T22:37:43.652Z,39.17
2018-11-07T22:40:13.861Z,45.53
2018-11-07T22:42:43.071Z,39.70
2018-11-07T22:45:12.416Z,37.93
2018-11-07T22:47:41.267Z,42.73
2018-11-07T22:50:11.884Z,39.67
2018-11-07T22:52:41.808Z,37.77
2018-11-07T22:55:10.805Z,41.80
2018-11-07T22:57:39.653Z,37.87
2018-11-07T23:00:23.095Z,45.80
2018-11-07T23:02:55.180Z,46.37
2018-11-07T23:05:24.065Z,44.70
2018-11-07T23:07:52.885Z,43.57
2018-11-07T23:10:21.780Z,44.07
2018-11-07T23:12:50.744Z,42.97
2018-11-07T23:15:25.188Z,40.90
2018-11-07T23:17:54.021Z,39.33
2018-11-07T23:20:23.184Z,41.93
2018-11-07T23:22:51.987Z,40.80
2018-11-07T23:25:20.929Z,41.77
2018-11-07T23:27:49.772Z,41.83
2018-11-07T23:30:18.612Z,43.40
2018-11-07T23:32:47.483Z,41.50
2018-11-07T23:35:16.372Z,40.80
2018-11-07T23:37:45.243Z,48.17
2018-11-07T23:40:14.101Z,38.67
2018-11-07T23:42:42.958Z,41.77
2018-11-07T23:45:23.795Z,43.50
2018-11-07T23:47:52.735Z,43.27
2018-11-07T23:50:21.618Z,38.50
2018-11-07T23:52:51.514Z,42.57
2018-11-07T23:55:21.658Z,39.07
2018-11-07T23:57:51.246Z,39.60
